Time;durP1;ratioP1;P1;durP2;ratioP2;P2;SDS_P1;SDS_P2;PMS_P1;PMS_P2;Temp;Humidity;BMP_temperature;BMP_pressure;BME280_temperature;BME280_humidity;BME280_pressure;Samples;Min_cycle;Max_cycle;Signal;HPM_P1;HPM_P2
2021/05/27 00:02:02;;;;;;;1.80;1.70;;;;;;;11.59;67.19;96697.66;5043838;28;20266;-66
2021/05/27 00:04:28;;;;;;;6.80;2.10;;;;;;;11.47;67.69;96698.00;5054158;28;20260;-66
2021/05/27 00:06:53;;;;;;;2.00;1.80;;;;;;;11.29;68.32;96698.22;5049574;28;20270;-66
2021/05/27 00:09:19;;;;;;;1.87;1.77;;;;;;;11.23;68.57;96701.53;5052013;28;20179;-66
2021/05/27 00:11:44;;;;;;;2.40;1.87;;;;;;;11.43;67.89;96701.97;5052019;28;20198;-66
2021/05/27 00:14:10;;;;;;;2.07;1.87;;;;;;;11.39;68.42;96705.91;5043079;28;20289;-66
2021/05/27 00:16:36;;;;;;;1.70;1.60;;;;;;;11.26;69.05;96700.38;5051589;28;20841;-66
2021/05/27 00:19:02;;;;;;;1.93;1.83;;;;;;;11.18;68.86;96699.44;5053340;28;20179;-67
2021/05/27 00:21:27;;;;;;;3.20;2.10;;;;;;;10.77;70.90;96698.69;5047333;28;20182;-65
2021/05/27 00:23:53;;;;;;;3.40;1.93;;;;;;;11.24;69.37;96699.72;5046592;28;20268;-66
2021/05/27 00:26:18;;;;;;;7.33;1.60;;;;;;;11.10;69.53;96702.06;5049957;28;20583;-66
2021/05/27 00:28:44;;;;;;;2.00;1.77;;;;;;;11.06;69.97;96698.16;5051256;28;20185;-67
2021/05/27 00:31:09;;;;;;;2.13;1.93;;;;;;;11.19;69.76;96701.06;5051366;28;20195;-65
2021/05/27 00:33:35;;;;;;;1.70;1.60;;;;;;;11.12;69.25;96692.22;5050802;28;20178;-65
2021/05/27 00:36:01;;;;;;;5.37;2.00;;;;;;;11.06;69.38;96690.28;5050907;28;20634;-66
2021/05/27 00:38:27;;;;;;;2.33;2.13;;;;;;;11.21;69.31;96696.44;5049425;28;20191;-66
2021/05/27 00:40:53;;;;;;;1.77;1.67;;;;;;;11.32;68.81;96700.53;5051161;28;20866;-66
2021/05/27 00:43:18;;;;;;;5.03;2.13;;;;;;;11.26;69.12;96697.75;5047895;28;20210;-66
2021/05/27 00:45:44;;;;;;;2.30;2.10;;;;;;;11.03;70.18;96701.09;5045798;28;20199;-68
2021/05/27 00:48:56;;;;;;;1.93;1.83;;;;;;;11.25;69.36;96699.56;5050939;28;20187;-67
2021/05/27 00:50:55;;;;;;;2.37;2.00;;;;;;;11.02;70.13;96694.22;5049659;28;20705;-66
2021/05/27 00:53:22;;;;;;;1.90;1.80;;;;;;;11.01;70.13;96701.28;5050516;28;20492;-67
2021/05/27 00:55:48;;;;;;;2.90;2.00;;;;;;;11.16;69.64;96700.56;5049971;28;20445;-67
2021/05/27 00:58:14;;;;;;;4.47;2.10;;;;;;;11.29;69.02;96700.84;5042902;28;20421;-67
2021/05/27 01:00:40;;;;;;;2.23;1.90;;;;;;;11.04;69.92;96694.88;5049991;28;20187;-66
2021/05/27 01:03:05;;;;;;;4.77;2.60;;;;;;;11.15;69.47;96710.25;5050574;28;20468;-66
2021/05/27 01:05:35;;;;;;;3.53;1.90;;;;;;;11.05;69.93;96699.13;5032499;28;20657;-67
2021/05/27 01:08:00;;;;;;;2.80;2.50;;;;;;;10.67;71.30;96710.16;5050883;28;20187;-66
2021/05/27 01:10:26;;;;;;;2.40;2.20;;;;;;;10.96;70.54;96711.44;5047757;28;20425;-66
2021/05/27 01:12:52;;;;;;;2.53;2.33;;;;;;;11.02;69.94;96704.69;5051165;28;20183;-68
2021/05/27 01:15:31;;;;;;;2.40;2.20;;;;;;;11.15;69.46;96707.63;5046931;28;20207;-65
2021/05/27 01:17:58;;;;;;;2.33;2.10;;;;;;;11.03;70.13;96706.34;5052613;28;20713;-66
2021/05/27 01:20:23;;;;;;;3.67;2.33;;;;;;;11.16;69.30;96711.88;5055597;28;20528;-66
2021/05/27 01:22:49;;;;;;;6.73;2.27;;;;;;;11.17;69.55;96710.91;5055885;28;20453;-66
2021/05/27 01:25:15;;;;;;;3.00;2.60;;;;;;;11.22;68.69;96705.16;5037758;28;20755;-67
2021/05/27 01:27:41;;;;;;;3.80;2.60;;;;;;;11.27;68.58;96717.75;5054672;28;20191;-66
2021/05/27 01:30:09;;;;;;;3.57;2.40;;;;;;;11.30;68.48;96714.81;5054547;28;20528;-68
2021/05/27 01:32:36;;;;;;;2.40;2.17;;;;;;;11.04;69.16;96713.22;5052445;28;20670;-66
2021/05/27 01:35:05;;;;;;;2.20;2.10;;;;;;;10.83;69.96;96719.00;5053784;28;20465;-66
2021/05/27 01:37:31;;;;;;;3.90;2.20;;;;;;;11.02;69.04;96710.78;5052713;28;20181;-66
2021/05/27 01:39:56;;;;;;;3.27;2.17;;;;;;;10.97;69.16;96720.09;5054438;28;20517;-67
2021/05/27 01:42:22;;;;;;;2.87;2.67;;;;;;;11.01;69.17;96718.78;5052980;28;20230;-67
2021/05/27 01:44:48;;;;;;;2.73;2.10;;;;;;;10.64;71.24;96718.38;5050972;28;20295;-66
2021/05/27 01:47:14;;;;;;;3.07;2.27;;;;;;;10.99;69.41;96718.13;5055169;28;20425;-67
2021/05/27 01:49:40;;;;;;;3.57;2.10;;;;;;;11.12;68.82;96710.56;5053581;28;20241;-68
2021/05/27 01:52:06;;;;;;;2.80;2.60;;;;;;;11.00;69.33;96715.38;5045134;28;20642;-66
2021/05/27 01:54:32;;;;;;;2.40;2.20;;;;;;;11.07;69.34;96713.69;5053561;28;20473;-67
2021/05/27 01:56:58;;;;;;;2.00;1.90;;;;;;;11.19;68.42;96714.19;5054743;28;20457;-65
2021/05/27 01:59:23;;;;;;;2.00;1.80;;;;;;;11.22;68.27;96716.44;5046077;28;20207;-66
2021/05/27 02:01:49;;;;;;;3.00;2.40;;;;;;;11.20;68.29;96712.34;5054679;28;20217;-67
2021/05/27 02:04:14;;;;;;;4.00;2.30;;;;;;;11.27;68.12;96712.50;5054034;28;20202;-67
2021/05/27 02:06:40;;;;;;;2.67;2.07;;;;;;;11.30;67.78;96720.84;5047635;28;20595;-65
2021/05/27 02:09:11;;;;;;;6.23;2.30;;;;;;;11.05;68.30;96725.34;5052752;28;20179;-67
2021/05/27 02:11:46;;;;;;;2.33;2.10;;;;;;;10.88;69.27;96730.63;5053405;28;20187;-66
2021/05/27 02:14:13;;;;;;;2.40;2.20;;;;;;;10.65;70.72;96727.84;5051520;28;21033;-65
2021/05/27 02:16:41;;;;;;;3.37;2.10;;;;;;;11.20;68.54;96728.94;5053455;28;20422;-68
2021/05/27 02:19:07;;;;;;;2.10;2.00;;;;;;;10.26;71.76;96731.88;5053433;28;20433;-66
2021/05/27 02:21:34;;;;;;;2.50;2.30;;;;;;;10.79;70.33;96723.75;5053141;28;20418;-65
2021/05/27 02:24:00;;;;;;;2.23;2.03;;;;;;;10.93;69.53;96721.44;5050360;28;20441;-69
2021/05/27 02:26:29;;;;;;;2.27;2.07;;;;;;;10.80;69.80;96721.94;5053397;28;20456;-68
2021/05/27 02:28:55;;;;;;;3.37;1.93;;;;;;;10.89;69.84;96731.44;5052406;28;20928;-66
2021/05/27 02:31:21;;;;;;;2.57;2.40;;;;;;;10.98;69.26;96727.00;5051626;28;20468;-66
2021/05/27 02:33:47;;;;;;;2.47;2.27;;;;;;;10.97;69.10;96733.22;5052439;28;20190;-67
2021/05/27 02:36:13;;;;;;;3.00;2.30;;;;;;;10.78;69.96;96729.97;5053095;28;20512;-67
2021/05/27 02:38:39;;;;;;;2.10;2.00;;;;;;;10.82;69.56;96726.06;5049809;28;20432;-67
2021/05/27 02:41:05;;;;;;;2.13;2.03;;;;;;;10.26;71.58;96731.88;5052723;28;20622;-67
2021/05/27 02:43:33;;;;;;;3.00;1.90;;;;;;;10.80;70.49;96728.00;5052688;28;20280;-67
2021/05/27 02:46:01;;;;;;;2.80;2.10;;;;;;;10.90;69.49;96739.13;5044211;28;20936;-67
2021/05/27 02:48:28;;;;;;;2.60;2.27;;;;;;;10.89;69.48;96737.50;5053101;28;20820;-67
2021/05/27 02:50:53;;;;;;;3.30;1.93;;;;;;;11.13;68.80;96733.19;5050296;28;20429;-67
2021/05/27 02:53:19;;;;;;;1.90;1.80;;;;;;;11.18;68.58;96740.56;5052129;28;20422;-67
2021/05/27 02:55:45;;;;;;;2.27;2.07;;;;;;;10.94;69.50;96744.06;5051234;28;20883;-67
2021/05/27 02:58:10;;;;;;;2.17;1.97;;;;;;;10.98;69.55;96746.19;5052700;28;20266;-66
2021/05/27 03:00:36;;;;;;;2.57;1.90;;;;;;;10.72;69.70;96741.09;5052485;28;20187;-66
2021/05/27 03:03:02;;;;;;;2.03;1.93;;;;;;;11.06;68.85;96738.28;5036944;28;20212;-66
2021/05/27 03:05:28;;;;;;;2.93;2.00;;;;;;;11.05;68.71;96734.03;5052172;28;20619;-67
2021/05/27 03:07:53;;;;;;;6.20;2.23;;;;;;;11.06;68.72;96735.66;5052459;28;20615;-66
2021/05/27 03:10:19;;;;;;;3.50;2.03;;;;;;;11.03;69.21;96732.56;5038076;28;20237;-66
2021/05/27 03:12:44;;;;;;;3.03;2.20;;;;;;;10.53;70.54;96735.22;5039135;28;20193;-67
2021/05/27 03:15:10;;;;;;;3.40;2.13;;;;;;;10.83;69.97;96732.94;5050379;28;20226;-65
2021/05/27 03:17:36;;;;;;;3.73;2.10;;;;;;;10.78;69.90;96735.22;5052202;28;20198;-69
2021/05/27 03:20:03;;;;;;;2.10;1.90;;;;;;;11.18;68.53;96735.31;5026496;28;20434;-67
2021/05/27 03:22:28;;;;;;;3.40;2.17;;;;;;;11.00;69.34;96735.50;5033133;28;20430;-67
2021/05/27 03:24:54;;;;;;;5.33;1.77;;;;;;;11.20;68.61;96726.31;5033665;28;20455;-66
2021/05/27 03:27:20;;;;;;;2.93;2.07;;;;;;;11.22;68.27;96726.13;5036524;28;20219;-67
2021/05/27 03:29:45;;;;;;;2.30;2.10;;;;;;;11.26;68.10;96721.38;5033765;28;20253;-67
2021/05/27 03:32:11;;;;;;;2.20;2.00;;;;;;;11.28;67.92;96727.25;5033388;28;20215;-66
2021/05/27 03:34:36;;;;;;;5.10;2.13;;;;;;;11.26;67.86;96722.19;5032529;28;20215;-66
2021/05/27 03:37:02;;;;;;;9.43;3.00;;;;;;;11.27;67.78;96717.75;5031600;28;20179;-67
2021/05/27 03:39:27;;;;;;;2.60;2.30;;;;;;;11.37;67.45;96713.13;5032093;28;20250;-66
2021/05/27 03:41:53;;;;;;;4.40;2.17;;;;;;;10.70;69.57;96733.41;5031940;28;20215;-66
2021/05/27 03:44:19;;;;;;;4.23;2.77;;;;;;;11.10;68.88;96728.28;5031156;28;20721;-67
2021/05/27 03:46:44;;;;;;;2.73;2.53;;;;;;;10.79;69.54;96731.63;5032001;28;20241;-68
2021/05/27 03:49:10;;;;;;;3.63;2.47;;;;;;;10.73;69.66;96732.25;5031244;28;20534;-67
2021/05/27 03:51:35;;;;;;;2.50;2.30;;;;;;;10.72;70.22;96726.22;5043189;28;20242;-66
2021/05/27 03:54:01;;;;;;;3.27;2.73;;;;;;;11.16;68.57;96732.03;5031820;28;20214;-66
2021/05/27 03:56:27;;;;;;;10.20;2.20;;;;;;;11.28;67.82;96729.88;5031499;28;20192;-66
2021/05/27 04:01:37;;;;;;;3.67;2.63;;;;;;;11.34;67.39;96727.41;5025357;28;20274;-66
2021/05/27 04:09:31;;;;;;;2.47;2.27;;;;;;;11.41;67.50;96724.94;5024369;28;20425;-65
2021/05/27 04:14:41;;;;;;;2.47;2.27;;;;;;;11.43;67.45;96725.59;5025525;28;20286;-65
2021/05/27 04:17:07;;;;;;;5.70;2.10;;;;;;;11.42;67.38;96726.56;5031598;28;20504;-67
2021/05/27 04:19:33;;;;;;;5.73;2.20;;;;;;;11.28;68.16;96728.06;5031239;28;20194;-67
2021/05/27 04:21:59;;;;;;;2.37;2.17;;;;;;;11.33;67.84;96727.59;5038525;28;20837;-66
2021/05/27 04:24:25;;;;;;;2.87;2.57;;;;;;;11.42;67.34;96729.19;5031274;28;20454;-66
2021/05/27 04:26:51;;;;;;;2.70;2.50;;;;;;;10.72;69.81;96730.63;5038803;28;20190;-66
2021/05/27 04:29:16;;;;;;;2.53;2.33;;;;;;;10.72;70.71;96730.63;5040426;28;20190;-66
2021/05/27 04:31:42;;;;;;;3.17;2.67;;;;;;;10.76;70.61;96737.19;5046059;28;20191;-66
2021/05/27 04:34:07;;;;;;;7.93;2.80;;;;;;;10.49;71.77;96736.53;5033103;28;20203;-66
2021/05/27 04:36:33;;;;;;;3.60;2.80;;;;;;;10.54;70.92;96742.09;5031281;28;20180;-67
2021/05/27 04:38:58;;;;;;;2.70;2.40;;;;;;;10.95;70.37;96741.25;5031005;28;20184;-67
2021/05/27 04:41:24;;;;;;;2.93;2.73;;;;;;;10.46;71.43;96736.84;5030886;28;20187;-66
2021/05/27 04:43:57;;;;;;;2.97;2.60;;;;;;;10.68;71.21;96742.44;5031138;28;20768;-66
2021/05/27 04:46:23;;;;;;;3.03;2.80;;;;;;;10.51;71.69;96745.03;5022066;28;20184;-66
2021/05/27 04:48:48;;;;;;;3.13;2.80;;;;;;;10.98;69.68;96750.59;5030847;28;20434;-66
2021/05/27 04:51:14;;;;;;;4.27;2.83;;;;;;;10.81;70.65;96757.66;5048434;28;20436;-67
2021/05/27 04:53:40;;;;;;;3.67;2.93;;;;;;;10.52;71.48;96751.91;5054679;28;20624;-67
2021/05/27 04:56:06;;;;;;;4.77;3.63;;;;;;;11.24;69.07;96754.81;5036219;28;20183;-67
2021/05/27 04:58:31;;;;;;;6.73;3.40;;;;;;;11.18;69.09;96767.63;5035466;28;20176;-68
2021/05/27 05:00:58;;;;;;;3.70;3.00;;;;;;;11.63;67.61;96762.75;5035954;28;20198;-66
2021/05/27 05:03:23;;;;;;;2.57;2.37;;;;;;;10.84;70.08;96766.00;5035644;28;20215;-67
2021/05/27 05:05:49;;;;;;;6.00;2.87;;;;;;;11.13;69.67;96767.28;5046866;28;20951;-66
2021/05/27 05:08:15;;;;;;;8.00;2.70;;;;;;;11.34;68.96;96765.94;5044444;28;20196;-66
2021/05/27 05:10:43;;;;;;;3.33;2.67;;;;;;;11.41;67.70;96772.16;5046957;28;20273;-65
2021/05/27 05:13:08;;;;;;;3.10;2.77;;;;;;;11.49;67.68;96773.94;5038261;28;20184;-67
2021/05/27 05:15:38;;;;;;;3.23;2.93;;;;;;;11.42;67.92;96768.53;5033074;28;20573;-65
2021/05/27 05:18:06;;;;;;;5.43;2.87;;;;;;;10.89;69.90;96779.44;5035677;28;20667;-66
2021/05/27 05:20:33;;;;;;;6.70;2.77;;;;;;;11.49;67.41;96787.88;5033284;28;20461;-66
2021/05/27 05:22:59;;;;;;;3.07;2.77;;;;;;;11.15;68.11;96782.88;5034579;28;20454;-68
2021/05/27 05:25:26;;;;;;;4.53;3.30;;;;;;;11.98;66.04;96788.69;5034262;28;20449;-67
2021/05/27 05:27:52;;;;;;;3.53;3.00;;;;;;;11.42;66.94;96784.28;5042806;28;20245;-67
2021/05/27 05:30:18;;;;;;;3.50;3.13;;;;;;;11.63;66.95;96786.38;5043724;28;20459;-66
2021/05/27 05:32:45;;;;;;;5.57;2.93;;;;;;;11.65;66.27;96788.81;5054781;28;20432;-66
2021/05/27 05:35:12;;;;;;;3.63;2.93;;;;;;;11.70;65.35;96790.94;5053597;28;20456;-66
2021/05/27 05:37:39;;;;;;;4.93;3.23;;;;;;;11.79;64.96;96795.97;5052725;28;20425;-66
2021/05/27 05:40:06;;;;;;;5.37;2.70;;;;;;;11.50;64.23;96792.13;5054594;28;20436;-66
2021/05/27 05:42:32;;;;;;;3.50;2.40;;;;;;;11.43;64.69;96804.31;5054166;28;20955;-66
2021/05/27 05:44:57;;;;;;;5.23;3.20;;;;;;;11.90;63.20;96807.94;5053536;28;20440;-68
2021/05/27 05:47:23;;;;;;;3.23;2.83;;;;;;;11.92;63.23;96810.38;5054342;28;20719;-67
2021/05/27 05:49:49;;;;;;;3.83;2.00;;;;;;;12.23;62.29;96807.81;5054380;28;20195;-67
2021/05/27 05:52:14;;;;;;;10.90;3.80;;;;;;;12.22;61.86;96800.91;5052574;28;20194;-66
2021/05/27 05:54:40;;;;;;;7.03;3.60;;;;;;;12.53;61.43;96800.09;5042059;28;20211;-67
2021/05/27 05:57:06;;;;;;;3.83;2.43;;;;;;;12.47;61.01;96799.97;5047844;28;20270;-66
2021/05/27 05:59:35;;;;;;;2.87;2.10;;;;;;;12.59;59.63;96799.38;5048404;28;20183;-72
2021/05/27 06:02:03;;;;;;;2.30;2.10;;;;;;;12.74;58.28;96799.41;5053446;28;20456;-66
2021/05/27 06:04:32;;;;;;;3.50;2.27;;;;;;;12.51;58.00;96798.59;5053786;28;20975;-67
2021/05/27 06:06:58;;;;;;;4.70;2.40;;;;;;;12.92;57.29;96790.41;5045446;28;20836;-66
2021/05/27 06:09:25;;;;;;;2.73;1.80;;;;;;;12.70;57.70;96792.91;5052762;28;20421;-67
2021/05/27 06:11:51;;;;;;;2.47;2.00;;;;;;;12.78;56.79;96804.34;5053799;28;20182;-67
2021/05/27 06:14:17;;;;;;;3.50;2.20;;;;;;;13.01;56.19;96801.69;5053444;28;22561;-67
2021/05/27 06:16:42;;;;;;;2.77;1.80;;;;;;;12.62;57.11;96808.72;5053875;28;20422;-66
2021/05/27 06:19:08;;;;;;;4.50;2.00;;;;;;;12.87;56.35;96803.25;5054301;28;20199;-66
2021/05/27 06:21:34;;;;;;;3.70;2.30;;;;;;;13.36;55.66;96802.81;5052359;28;20615;-66
2021/05/27 06:23:59;;;;;;;4.77;2.60;;;;;;;13.20;55.13;96803.00;5052992;28;20207;-65
2021/05/27 06:26:25;;;;;;;8.33;2.60;;;;;;;13.14;55.00;96809.78;5053864;28;20668;-66
2021/05/27 06:28:51;;;;;;;4.20;1.80;;;;;;;13.04;55.81;96812.66;5048083;28;20180;-66
2021/05/27 06:31:16;;;;;;;2.20;2.00;;;;;;;12.99;55.69;96822.09;5050845;28;20273;-66
2021/05/27 06:33:43;;;;;;;6.93;2.23;;;;;;;13.47;54.85;96817.41;5052957;28;20182;-66
2021/05/27 06:36:09;;;;;;;2.17;1.77;;;;;;;14.38;52.48;96815.50;5052982;28;20256;-66
2021/05/27 06:38:34;;;;;;;4.57;2.10;;;;;;;14.26;52.65;96815.19;5051657;28;20429;-66
2021/05/27 06:41:00;;;;;;;4.77;1.80;;;;;;;13.62;53.60;96820.03;5053113;28;20198;-66
2021/05/27 06:43:26;;;;;;;1.83;1.70;;;;;;;14.10;52.60;96822.28;5045192;28;20217;-67
2021/05/27 06:45:52;;;;;;;1.47;1.30;;;;;;;13.56;53.51;96818.16;5052821;28;20449;-66
2021/05/27 06:48:17;;;;;;;2.57;2.07;;;;;;;13.73;52.98;96818.78;5052476;28;20653;-65
2021/05/27 06:50:43;;;;;;;3.00;1.60;;;;;;;13.79;52.03;96811.97;5050122;28;20190;-67
2021/05/27 06:53:13;;;;;;;4.33;2.03;;;;;;;13.25;52.80;96826.94;5052611;28;20182;-66
2021/05/27 06:55:40;;;;;;;4.80;1.93;;;;;;;13.36;51.28;96817.81;5052818;28;20209;-70
2021/05/27 06:58:06;;;;;;;7.80;2.07;;;;;;;13.52;50.74;96824.75;5052675;28;20430;-66
2021/05/27 07:00:32;;;;;;;1.63;1.53;;;;;;;13.47;51.42;96819.22;5046493;28;20528;-65
2021/05/27 07:02:57;;;;;;;3.00;1.60;;;;;;;13.58;51.27;96817.94;5052660;28;20454;-66
2021/05/27 07:05:23;;;;;;;3.50;1.50;;;;;;;14.33;48.97;96829.25;5052489;28;20442;-67
2021/05/27 07:07:49;;;;;;;3.10;1.80;;;;;;;14.49;48.75;96825.56;5047619;28;20240;-66
2021/05/27 07:10:17;;;;;;;3.20;1.60;;;;;;;13.81;48.85;96825.78;5053283;28;20913;-68
2021/05/27 07:12:54;;;;;;;3.87;1.90;;;;;;;14.15;48.50;96832.28;5052876;28;20448;-69
2021/05/27 07:15:21;;;;;;;3.03;1.50;;;;;;;14.53;48.31;96833.94;5051652;28;20472;-68
2021/05/27 07:17:47;;;;;;;2.40;1.17;;;;;;;14.41;48.43;96828.31;5052093;28;20434;-68
2021/05/27 07:20:14;;;;;;;2.93;1.40;;;;;;;14.08;49.13;96831.41;5052409;28;20421;-67
2021/05/27 07:22:40;;;;;;;11.40;3.00;;;;;;;13.90;49.25;96835.22;5048997;28;20493;-67
2021/05/27 07:25:06;;;;;;;5.53;1.70;;;;;;;13.91;49.75;96828.94;5051965;28;20469;-67
2021/05/27 07:27:32;;;;;;;2.13;1.77;;;;;;;13.66;49.30;96828.41;5052467;28;20262;-66
2021/05/27 07:29:58;;;;;;;5.80;2.00;;;;;;;13.90;47.77;96835.22;5045601;28;20445;-68
2021/05/27 07:32:24;;;;;;;2.33;1.83;;;;;;;13.75;48.89;96844.91;5051976;28;20421;-67
2021/05/27 07:34:49;;;;;;;2.23;1.77;;;;;;;13.92;49.04;96832.41;5052029;28;20453;-66
2021/05/27 07:37:15;;;;;;;2.63;1.70;;;;;;;13.59;49.53;96836.22;5050448;28;20187;-67
2021/05/27 07:39:40;;;;;;;5.83;1.50;;;;;;;13.86;49.88;96839.19;5052444;28;20182;-70
2021/05/27 07:42:07;;;;;;;10.63;3.40;;;;;;;13.58;48.70;96834.59;5051709;28;20219;-67
2021/05/27 07:44:34;;;;;;;4.33;1.50;;;;;;;13.60;48.32;96840.50;5051893;28;20257;-66
2021/05/27 07:46:59;;;;;;;3.27;1.90;;;;;;;14.24;47.58;96831.16;5052382;28;20487;-67
2021/05/27 07:49:25;;;;;;;2.00;1.40;;;;;;;14.23;46.68;96823.47;5058653;28;20421;-68
2021/05/27 07:51:51;;;;;;;4.27;1.90;;;;;;;14.35;46.72;96832.53;5053128;28;20214;-68
2021/05/27 07:54:16;;;;;;;4.30;1.70;;;;;;;14.79;45.52;96828.13;5052921;28;20211;-67
2021/05/27 07:56:42;;;;;;;1.80;1.53;;;;;;;14.36;46.12;96836.00;5052734;28;20183;-66
2021/05/27 07:59:08;;;;;;;3.30;1.40;;;;;;;14.89;45.34;96833.09;5047562;28;20183;-66
2021/05/27 08:01:34;;;;;;;5.93;2.00;;;;;;;14.73;46.12;96824.44;5047710;28;20202;-65
2021/05/27 08:04:00;;;;;;;6.50;2.43;;;;;;;14.43;44.89;96834.22;5052245;28;20528;-67
2021/05/27 08:06:26;;;;;;;3.63;1.40;;;;;;;14.51;45.20;96839.38;5051371;28;20524;-67
2021/05/27 08:08:51;;;;;;;3.20;1.70;;;;;;;14.67;45.69;96830.47;5052780;28;20247;-69
2021/05/27 08:11:17;;;;;;;5.30;1.80;;;;;;;15.38;44.53;96836.75;5052388;28;20191;-67
2021/05/27 08:13:43;;;;;;;6.43;1.90;;;;;;;15.34;44.74;96830.25;5051766;28;20677;-67
2021/05/27 08:16:09;;;;;;;3.33;1.40;;;;;;;16.22;43.35;96834.22;5051130;28;20818;-68
2021/05/27 08:18:34;;;;;;;4.20;2.27;;;;;;;16.31;43.21;96840.16;5051912;28;20429;-66
2021/05/27 08:21:00;;;;;;;2.03;1.63;;;;;;;16.04;43.79;96835.56;5050559;28;20191;-68
2021/05/27 08:23:25;;;;;;;3.00;2.20;;;;;;;15.43;44.57;96846.75;5051296;28;20233;-68
2021/05/27 08:25:51;;;;;;;5.67;2.80;;;;;;;16.04;42.81;96835.56;5051908;28;20260;-67
2021/05/27 08:28:17;;;;;;;2.20;1.90;;;;;;;15.38;43.56;96842.03;5056446;28;20193;-67
2021/05/27 08:30:42;;;;;;;4.60;1.60;;;;;;;15.88;42.49;96841.19;5043066;28;20190;-68
2021/05/27 08:33:08;;;;;;;1.60;1.50;;;;;;;15.66;42.84;96833.28;5055988;28;20183;-66
2021/05/27 08:35:33;;;;;;;4.27;1.40;;;;;;;16.72;40.92;96832.13;5055957;28;20693;-66
2021/05/27 08:37:59;;;;;;;4.67;1.60;;;;;;;16.38;41.15;96838.34;5054378;28;20232;-65
2021/05/27 08:40:25;;;;;;;4.60;1.30;;;;;;;16.58;41.01;96835.75;5048691;28;20270;-65
2021/05/27 08:42:50;;;;;;;8.87;2.10;;;;;;;17.12;40.37;96841.19;5056240;28;20230;-68
2021/05/27 08:45:18;;;;;;;4.80;2.10;;;;;;;17.00;40.75;96849.72;5054475;28;20758;-67
2021/05/27 08:47:44;;;;;;;2.17;1.80;;;;;;;16.83;40.27;96836.00;5056793;28;20191;-69
2021/05/27 08:50:10;;;;;;;3.63;1.40;;;;;;;15.78;41.44;96847.59;5055277;28;20452;-68
2021/05/27 08:52:36;;;;;;;2.63;1.30;;;;;;;15.13;42.72;96853.00;5055959;28;20434;-66
2021/05/27 08:55:02;;;;;;;1.80;1.30;;;;;;;15.04;43.20;96851.50;5057032;28;20206;-65
2021/05/27 08:57:28;;;;;;;2.57;1.30;;;;;;;15.15;42.92;96858.91;5056027;28;20197;-67
2021/05/27 08:59:53;;;;;;;4.20;1.80;;;;;;;15.29;42.94;96848.47;5049631;28;20912;-67
2021/05/27 09:02:19;;;;;;;8.30;1.87;;;;;;;16.39;40.49;96834.69;5037518;28;20681;-67
2021/05/27 09:04:45;;;;;;;3.97;1.57;;;;;;;16.38;40.74;96847.06;5032714;28;20207;-67
2021/05/27 09:07:13;;;;;;;14.83;3.30;;;;;;;16.45;39.00;96851.59;5056183;28;20221;-67
2021/05/27 09:09:56;;;;;;;19.17;1.70;;;;;;;17.53;37.12;96837.47;5030210;28;20187;-67
2021/05/27 09:12:31;;;;;;;1.30;1.10;;;;;;;17.35;37.97;96844.22;5056030;28;20425;-67
2021/05/27 09:14:58;;;;;;;2.10;1.47;;;;;;;17.91;37.17;96844.75;5055853;28;20465;-66
2021/05/27 09:17:24;;;;;;;5.00;1.53;;;;;;;17.13;38.58;96848.09;5055074;28;20453;-67
2021/05/27 09:20:12;;;;;;;2.60;1.23;;;;;;;18.03;37.05;96846.78;5053201;28;20417;-67
2021/05/27 09:22:38;;;;;;;2.17;1.40;;;;;;;17.90;36.72;96845.78;5048644;28;20974;-69
2021/05/27 09:25:05;;;;;;;3.80;1.50;;;;;;;18.47;36.10;96847.84;5057827;28;20452;-69
2021/05/27 09:27:45;;;;;;;8.33;1.40;;;;;;;17.90;36.17;96845.78;5056616;28;20425;-66
2021/05/27 09:30:12;;;;;;;3.00;1.47;;;;;;;16.82;39.00;96857.38;5032151;28;20912;-66
2021/05/27 09:32:39;;;;;;;3.20;1.00;;;;;;;17.35;37.66;96849.53;5063068;28;20520;-66
2021/05/27 09:35:08;;;;;;;2.40;1.43;;;;;;;17.07;38.66;96862.13;5066803;28;20456;-68
2021/05/27 09:37:34;;;;;;;1.50;1.23;;;;;;;17.53;38.05;96848.06;5036749;28;20977;-67
2021/05/27 09:40:02;;;;;;;1.33;1.13;;;;;;;17.24;39.19;96855.44;5056289;28;20513;-67
2021/05/27 09:42:28;;;;;;;3.23;1.30;;;;;;;16.72;39.41;96863.88;5055610;28;20241;-67
2021/05/27 09:44:54;;;;;;;6.67;1.47;;;;;;;16.61;39.83;96861.81;5054255;28;20469;-68
2021/05/27 09:47:30;;;;;;;7.50;1.77;;;;;;;17.29;38.82;96858.28;5054640;28;20418;-68
2021/05/27 09:50:01;;;;;;;5.07;1.57;;;;;;;17.18;38.34;96861.53;5053302;28;20498;-69
2021/05/27 09:52:43;;;;;;;3.40;1.50;;;;;;;17.02;38.63;96858.25;5041412;28;20418;-67
2021/05/27 09:55:14;;;;;;;1.83;1.27;;;;;;;16.50;39.77;96865.03;5055789;28;20449;-67
2021/05/27 09:57:44;;;;;;;2.13;1.67;;;;;;;16.48;39.90;96867.06;5052872;28;20444;-67
2021/05/27 10:00:22;;;;;;;2.37;1.53;;;;;;;16.36;40.50;96870.28;5047152;28;20425;-67
2021/05/27 10:02:48;;;;;;;1.37;1.20;;;;;;;16.40;40.29;96874.16;5050207;28;20834;-69
2021/05/27 10:05:14;;;;;;;4.87;1.93;;;;;;;15.97;41.55;96872.53;5036569;28;20455;-67
2021/05/27 10:07:40;;;;;;;4.20;1.20;;;;;;;16.49;40.18;96880.09;5049472;28;20434;-65
2021/05/27 10:10:08;;;;;;;1.70;1.00;;;;;;;17.43;38.19;96868.88;5052289;28;21051;-66
2021/05/27 10:12:45;;;;;;;4.77;2.33;;;;;;;17.51;37.90;96866.03;5050705;28;20175;-66
2021/05/27 10:15:14;;;;;;;2.93;1.83;;;;;;;17.83;36.67;96858.22;5052213;28;20472;-66
2021/05/27 10:17:41;;;;;;;3.03;1.70;;;;;;;18.05;35.36;96860.66;5054242;28;20436;-66
2021/05/27 10:20:09;;;;;;;2.13;1.30;;;;;;;17.39;36.70;96862.38;5054850;28;20418;-67
2021/05/27 10:22:35;;;;;;;3.90;1.53;;;;;;;16.68;39.12;96872.44;5055361;28;20468;-66
2021/05/27 10:25:07;;;;;;;2.07;1.30;;;;;;;17.18;37.82;96866.81;5020300;28;20476;-67
2021/05/27 10:27:33;;;;;;;2.63;1.33;;;;;;;16.66;37.73;96869.97;5054772;28;20179;-67
2021/05/27 10:29:59;;;;;;;3.87;1.70;;;;;;;16.87;37.32;96870.84;5046778;28;20837;-67
2021/05/27 10:32:28;;;;;;;1.90;1.60;;;;;;;16.87;38.10;96866.34;5054192;28;20513;-67
2021/05/27 10:34:55;;;;;;;1.90;1.37;;;;;;;16.83;37.48;96867.75;5052059;28;20449;-66
2021/05/27 10:37:45;;;;;;;2.00;1.60;;;;;;;16.43;39.32;96865.81;5053567;28;21069;-66
2021/05/27 10:40:11;;;;;;;2.90;1.73;;;;;;;16.07;39.89;96864.25;5039899;28;20548;-67
2021/05/27 10:42:55;;;;;;;2.50;1.30;;;;;;;16.16;40.11;96872.00;5053670;28;20548;-66
2021/05/27 10:45:21;;;;;;;3.70;1.70;;;;;;;16.51;39.85;96864.00;5053143;28;20235;-66
2021/05/27 10:48:11;;;;;;;3.00;1.97;;;;;;;16.69;39.56;96869.56;5054188;28;20421;-67
2021/05/27 10:51:23;;;;;;;3.10;1.90;;;;;;;16.19;40.14;96866.34;5040400;28;20494;-66
2021/05/27 10:53:41;;;;;;;3.93;1.67;;;;;;;16.10;40.73;96861.22;5052717;28;20936;-67
2021/05/27 10:56:07;;;;;;;5.13;1.77;;;;;;;15.87;42.37;96872.06;5053868;28;20532;-67
2021/05/27 10:58:48;;;;;;;5.23;1.60;;;;;;;15.81;42.89;96870.19;5049561;28;20505;-66
2021/05/27 11:01:18;;;;;;;2.20;1.67;;;;;;;15.78;43.21;96863.44;5048809;28;20511;-66
2021/05/27 11:03:52;;;;;;;7.13;1.87;;;;;;;15.80;42.94;96872.00;5054757;28;20457;-65
2021/05/27 11:06:21;;;;;;;1.77;1.63;;;;;;;15.96;42.42;96870.09;5053417;28;20424;-66
2021/05/27 11:08:47;;;;;;;4.73;1.80;;;;;;;16.17;42.07;96873.63;5051596;28;20444;-68
2021/05/27 11:11:43;;;;;;;2.90;1.70;;;;;;;16.61;41.13;96872.41;5052374;28;20524;-66
2021/05/27 11:14:27;;;;;;;3.13;1.63;;;;;;;16.54;41.16;96871.56;5051864;28;20434;-66
2021/05/27 11:22:37;;;;;;;2.70;1.60;;;;;;;16.80;39.93;96870.81;5051768;28;20493;-66
2021/05/27 11:25:12;;;;;;;3.10;1.50;;;;;;;17.35;39.19;96868.06;5051929;28;20536;-65
2021/05/27 11:27:49;;;;;;;5.10;2.10;;;;;;;16.61;40.00;96867.13;5052436;28;20777;-67
2021/05/27 11:30:33;;;;;;;3.73;1.23;;;;;;;17.00;39.71;96864.78;5046353;28;20890;-66
2021/05/27 11:33:31;;;;;;;2.40;1.80;;;;;;;17.61;37.89;96861.13;5043751;28;20794;-67
2021/05/27 11:35:59;;;;;;;4.33;1.50;;;;;;;17.83;38.05;96858.22;4994757;28;20468;-67
2021/05/27 11:38:32;;;;;;;2.10;1.27;;;;;;;17.59;38.16;96868.47;4990603;28;20515;-66
2021/05/27 11:41:00;;;;;;;3.10;1.50;;;;;;;17.81;37.73;96866.41;4990184;28;20950;-67
2021/05/27 11:43:27;;;;;;;1.73;1.40;;;;;;;18.06;37.37;96864.94;4991270;28;20563;-67
2021/05/27 11:45:54;;;;;;;1.30;1.20;;;;;;;18.10;37.27;96864.31;4974487;28;20456;-66
2021/05/27 11:48:28;;;;;;;2.40;1.30;;;;;;;17.40;38.45;96863.97;4991047;28;20973;-67
2021/05/27 11:51:14;;;;;;;2.30;1.10;;;;;;;17.47;38.15;96859.50;4991012;28;20487;-67
2021/05/27 11:53:46;;;;;;;2.50;1.40;;;;;;;17.35;38.22;96861.94;4997937;28;20463;-67